Terminal Aerodrome Forecast
Issued by NWS Wilmington, OH

Current Version | Previous Version | Graphics & Text | Print | Product List | Glossary On
Versions: 1 2 3 4 5 6 7 8 9 10 11 12 13 14 15 16 17 18 19 20 21 22 23
000
FTUS41 KILN 231121
TAFCVG
TAF
KCVG 231121Z 2312/2418 VRB03KT P6SM BKN250
     FM231700 11005KT P6SM BKN250
     FM240200 13005KT P6SM BKN050
     FM240900 15004KT P6SM VCSH OVC050
     FM241500 16007KT 5SM -SHRA OVC040
     FM241700 17007KT 5SM -SHRA BR OVC025=

USA.gov is the U.S. government's official web portal to all federal, state and local government web resources and services.